sensor_id;sensor_type;location;lat;lon;timestamp;pressure;altitude;pressure_sealevel;temperature;humidity
14343;BME280;7255;53.596;9.960;2023-03-01T00:01:27;102770.25;;;0.26;nan
14343;BME280;7255;53.596;9.960;2023-03-01T00:03:54;102713.94;;;0.36;nan
14343;BME280;7255;53.596;9.960;2023-03-01T00:06:21;102785.22;;;0.51;nan
14343;BME280;7255;53.596;9.960;2023-03-01T00:08:49;102792.41;;;0.49;nan
14343;BME280;7255;53.596;9.960;2023-03-01T00:11:18;102773.38;;;0.44;nan
14343;BME280;7255;53.596;9.960;2023-03-01T00:13:45;102779.09;;;0.37;nan
14343;BME280;7255;53.596;9.960;2023-03-01T00:16:14;102787.59;;;0.30;nan
14343;BME280;7255;53.596;9.960;2023-03-01T00:18:41;102775.75;;;0.23;nan
14343;BME280;7255;53.596;9.960;2023-03-01T00:21:07;102770.25;;;0.13;nan
14343;BME280;7255;53.596;9.960;2023-03-01T00:23:35;102774.25;;;0.18;nan
14343;BME280;7255;53.596;9.960;2023-03-01T00:26:06;102755.00;;;0.16;nan
14343;BME280;7255;53.596;9.960;2023-03-01T00:28:33;102759.69;;;0.13;nan
14343;BME280;7255;53.596;9.960;2023-03-01T00:31:03;102752.69;;;0.12;nan
14343;BME280;7255;53.596;9.960;2023-03-01T00:33:29;102756.25;;;0.11;nan
14343;BME280;7255;53.596;9.960;2023-03-01T00:35:57;102765.37;;;0.07;nan
14343;BME280;7255;53.596;9.960;2023-03-01T00:38:24;102769.81;;;0.06;nan
14343;BME280;7255;53.596;9.960;2023-03-01T00:40:50;102770.84;;;0.04;nan
14343;BME280;7255;53.596;9.960;2023-03-01T00:43:18;102758.59;;;0.03;nan
14343;BME280;7255;53.596;9.960;2023-03-01T00:45:44;102745.28;;;0.04;nan
14343;BME280;7255;53.596;9.960;2023-03-01T00:48:11;102767.28;;;0.05;nan
14343;BME280;7255;53.596;9.960;2023-03-01T00:50:37;102759.44;;;0.03;nan
14343;BME280;7255;53.596;9.960;2023-03-01T00:53:03;102755.44;;;-0.03;nan
14343;BME280;7255;53.596;9.960;2023-03-01T00:55:30;102746.56;;;-0.02;nan
14343;BME280;7255;53.596;9.960;2023-03-01T00:57:57;102750.16;;;-0.03;nan
14343;BME280;7255;53.596;9.960;2023-03-01T01:00:24;102757.53;;;-0.08;nan
14343;BME280;7255;53.596;9.960;2023-03-01T01:02:52;102761.16;;;-0.09;nan
14343;BME280;7255;53.596;9.960;2023-03-01T01:05:19;102749.06;;;-0.13;nan
14343;BME280;7255;53.596;9.960;2023-03-01T01:07:46;102758.59;;;-0.10;nan
14343;BME280;7255;53.596;9.960;2023-03-01T01:10:12;102748.66;;;-0.07;nan
14343;BME280;7255;53.596;9.960;2023-03-01T01:12:42;102749.72;;;-0.09;nan
14343;BME280;7255;53.596;9.960;2023-03-01T01:15:09;102737.91;;;-0.04;nan
14343;BME280;7255;53.596;9.960;2023-03-01T01:17:40;102748.47;;;-0.04;nan
14343;BME280;7255;53.596;9.960;2023-03-01T01:20:08;102756.50;;;-0.18;nan
14343;BME280;7255;53.596;9.960;2023-03-01T01:22:34;102738.50;;;-0.13;nan
14343;BME280;7255;53.596;9.960;2023-03-01T01:25:01;102725.63;;;-0.17;nan
14343;BME280;7255;53.596;9.960;2023-03-01T01:27:27;102742.28;;;-0.43;nan
14343;BME280;7255;53.596;9.960;2023-03-01T01:29:53;102717.94;;;-0.61;nan
14343;BME280;7255;53.596;9.960;2023-03-01T01:32:19;102727.66;;;-0.61;nan
14343;BME280;7255;53.596;9.960;2023-03-01T01:34:47;102723.88;;;-0.57;nan
14343;BME280;7255;53.596;9.960;2023-03-01T01:37:13;102716.47;;;-0.65;nan
14343;BME280;7255;53.596;9.960;2023-03-01T01:39:40;102721.56;;;-0.49;nan
14343;BME280;7255;53.596;9.960;2023-03-01T01:42:09;102722.44;;;-0.35;nan
14343;BME280;7255;53.596;9.960;2023-03-01T01:44:40;102718.63;;;-0.31;nan
14343;BME280;7255;53.596;9.960;2023-03-01T01:47:10;102721.37;;;-0.33;nan
14343;BME280;7255;53.596;9.960;2023-03-01T01:49:42;102710.81;;;-0.33;nan
14343;BME280;7255;53.596;9.960;2023-03-01T01:52:14;102711.66;;;-0.32;nan
14343;BME280;7255;53.596;9.960;2023-03-01T01:54:45;102700.87;;;-0.29;nan
14343;BME280;7255;53.596;9.960;2023-03-01T01:57:16;102701.94;;;-0.19;nan
14343;BME280;7255;53.596;9.960;2023-03-01T01:59:48;102706.38;;;-0.07;nan
14343;BME280;7255;53.596;9.960;2023-03-01T02:02:15;102700.44;;;0.03;nan
14343;BME280;7255;53.596;9.960;2023-03-01T02:04:42;102710.59;;;0.09;nan
14343;BME280;7255;53.596;9.960;2023-03-01T02:07:15;102649.69;;;0.10;nan
14343;BME280;7255;53.596;9.960;2023-03-01T02:09:45;102706.56;;;0.03;nan
14343;BME280;7255;53.596;9.960;2023-03-01T02:12:12;102692.41;;;0.17;nan
14343;BME280;7255;53.596;9.960;2023-03-01T02:14:39;102700.00;;;0.22;nan
14343;BME280;7255;53.596;9.960;2023-03-01T02:17:05;102708.66;;;0.24;nan
14343;BME280;7255;53.596;9.960;2023-03-01T02:19:42;102716.28;;;0.28;nan
14343;BME280;7255;53.596;9.960;2023-03-01T02:22:20;102684.75;;;0.25;nan
14343;BME280;7255;53.596;9.960;2023-03-01T02:24:57;102712.91;;;0.26;nan
14343;BME280;7255;53.596;9.960;2023-03-01T02:27:33;102707.81;;;0.23;nan
14343;BME280;7255;53.596;9.960;2023-03-01T02:30:05;102697.44;;;0.20;nan
14343;BME280;7255;53.596;9.960;2023-03-01T02:32:32;102700.22;;;0.18;nan
14343;BME280;7255;53.596;9.960;2023-03-01T02:35:00;102709.72;;;0.21;nan
14343;BME280;7255;53.596;9.960;2023-03-01T02:37:27;102709.09;;;0.30;nan
14343;BME280;7255;53.596;9.960;2023-03-01T02:39:58;102701.00;;;0.45;nan
14343;BME280;7255;53.596;9.960;2023-03-01T02:42:28;102711.16;;;0.51;nan
14343;BME280;7255;53.596;9.960;2023-03-01T02:44:56;102690.22;;;0.48;nan
14343;BME280;7255;53.596;9.960;2023-03-01T02:47:24;102706.31;;;0.45;nan
14343;BME280;7255;53.596;9.960;2023-03-01T02:49:50;102707.34;;;0.42;nan
14343;BME280;7255;53.596;9.960;2023-03-01T02:52:37;102703.78;;;0.30;nan
14343;BME280;7255;53.596;9.960;2023-03-01T02:55:08;102694.91;;;0.31;nan
14343;BME280;7255;53.596;9.960;2023-03-01T02:57:40;102703.75;;;0.43;nan
14343;BME280;7255;53.596;9.960;2023-03-01T03:00:08;102701.00;;;0.45;nan
14343;BME280;7255;53.596;9.960;2023-03-01T03:02:36;102696.97;;;0.52;nan
14343;BME280;7255;53.596;9.960;2023-03-01T03:05:06;102690.59;;;0.54;nan
14343;BME280;7255;53.596;9.960;2023-03-01T03:07:34;102686.81;;;0.46;nan
14343;BME280;7255;53.596;9.960;2023-03-01T03:10:00;102691.97;;;0.23;nan
14343;BME280;7255;53.596;9.960;2023-03-01T03:12:27;102691.53;;;0.16;nan
14343;BME280;7255;53.596;9.960;2023-03-01T03:14:53;102686.88;;;0.20;nan
14343;BME280;7255;53.596;9.960;2023-03-01T03:17:19;102678.63;;;0.25;nan
14343;BME280;7255;53.596;9.960;2023-03-01T03:19:47;102690.28;;;0.22;nan
14343;BME280;7255;53.596;9.960;2023-03-01T03:22:13;102649.03;;;0.19;nan
14343;BME280;7255;53.596;9.960;2023-03-01T03:24:40;102683.50;;;0.18;nan
14343;BME280;7255;53.596;9.960;2023-03-01T03:27:07;102688.13;;;0.27;nan
14343;BME280;7255;53.596;9.960;2023-03-01T03:29:33;102677.97;;;0.34;nan
14343;BME280;7255;53.596;9.960;2023-03-01T03:32:00;102688.34;;;0.37;nan
14343;BME280;7255;53.596;9.960;2023-03-01T03:34:26;102676.84;;;0.49;nan
14343;BME280;7255;53.596;9.960;2023-03-01T03:36:54;102697.16;;;0.62;nan
14343;BME280;7255;53.596;9.960;2023-03-01T03:39:21;102690.97;;;0.74;nan
14343;BME280;7255;53.596;9.960;2023-03-01T03:41:48;102689.22;;;0.86;nan
14343;BME280;7255;53.596;9.960;2023-03-01T03:44:14;102685.78;;;0.96;nan
14343;BME280;7255;53.596;9.960;2023-03-01T03:46:40;102697.37;;;1.07;nan
14343;BME280;7255;53.596;9.960;2023-03-01T03:49:07;102696.91;;;1.13;nan
14343;BME280;7255;53.596;9.960;2023-03-01T03:51:33;102698.78;;;1.24;nan
14343;BME280;7255;53.596;9.960;2023-03-01T03:54:01;102698.31;;;1.30;nan
14343;BME280;7255;53.596;9.960;2023-03-01T03:56:27;102706.12;;;1.31;nan
14343;BME280;7255;53.596;9.960;2023-03-01T03:58:53;102694.84;;;1.41;nan
14343;BME280;7255;53.596;9.960;2023-03-01T04:01:20;102696.91;;;1.48;nan
14343;BME280;7255;53.596;9.960;2023-03-01T04:03:46;102696.69;;;1.51;nan
14343;BME280;7255;53.596;9.960;2023-03-01T04:06:13;102775.72;;;1.58;nan
14343;BME280;7255;53.596;9.960;2023-03-01T04:08:40;102702.72;;;1.65;nan
14343;BME280;7255;53.596;9.960;2023-03-01T04:11:08;102698.91;;;1.69;nan
14343;BME280;7255;53.596;9.960;2023-03-01T04:13:54;102693.81;;;1.66;nan
14343;BME280;7255;53.596;9.960;2023-03-01T04:16:21;102698.28;;;1.65;nan
14343;BME280;7255;53.596;9.960;2023-03-01T04:18:48;102693.12;;;1.75;nan
14343;BME280;7255;53.596;9.960;2023-03-01T04:21:15;102688.41;;;1.79;nan
14343;BME280;7255;53.596;9.960;2023-03-01T04:23:41;102686.81;;;1.65;nan
14343;BME280;7255;53.596;9.960;2023-03-01T04:26:09;102691.28;;;1.64;nan
14343;BME280;7255;53.596;9.960;2023-03-01T04:28:37;102693.34;;;1.72;nan
14343;BME280;7255;53.596;9.960;2023-03-01T04:31:07;102701.69;;;1.90;nan
14343;BME280;7255;53.596;9.960;2023-03-01T04:33:39;102698.91;;;1.91;nan
14343;BME280;7255;53.596;9.960;2023-03-01T04:36:07;102703.12;;;1.94;nan
14343;BME280;7255;53.596;9.960;2023-03-01T04:38:40;102680.84;;;1.97;nan
14343;BME280;7255;53.596;9.960;2023-03-01T04:41:10;102699.28;;;1.98;nan
14343;BME280;7255;53.596;9.960;2023-03-01T04:43:37;102701.84;;;2.00;nan
14343;BME280;7255;53.596;9.960;2023-03-01T04:46:05;102683.13;;;2.01;nan
14343;BME280;7255;53.596;9.960;2023-03-01T04:48:34;102702.78;;;2.10;nan
14343;BME280;7255;53.596;9.960;2023-03-01T04:51:01;102710.63;;;2.11;nan
14343;BME280;7255;53.596;9.960;2023-03-01T04:53:28;102706.75;;;2.16;nan
14343;BME280;7255;53.596;9.960;2023-03-01T04:55:55;102715.94;;;2.11;nan
14343;BME280;7255;53.596;9.960;2023-03-01T04:58:23;102710.97;;;1.96;nan
14343;BME280;7255;53.596;9.960;2023-03-01T05:00:50;102706.41;;;2.09;nan
14343;BME280;7255;53.596;9.960;2023-03-01T05:03:17;102707.84;;;2.13;nan
14343;BME280;7255;53.596;9.960;2023-03-01T05:05:45;102708.69;;;2.14;nan
14343;BME280;7255;53.596;9.960;2023-03-01T05:08:12;102712.66;;;2.19;nan
14343;BME280;7255;53.596;9.960;2023-03-01T05:10:43;102711.44;;;2.12;nan
14343;BME280;7255;53.596;9.960;2023-03-01T05:13:11;102711.47;;;2.35;nan
14343;BME280;7255;53.596;9.960;2023-03-01T05:15:41;102691.91;;;2.36;nan
14343;BME280;7255;53.596;9.960;2023-03-01T05:18:08;102713.38;;;2.33;nan
14343;BME280;7255;53.596;9.960;2023-03-01T05:20:36;102704.97;;;2.27;nan
14343;BME280;7255;53.596;9.960;2023-03-01T05:23:04;102699.28;;;2.21;nan
14343;BME280;7255;53.596;9.960;2023-03-01T05:25:32;102692.88;;;2.23;nan
14343;BME280;7255;53.596;9.960;2023-03-01T05:27:58;102699.19;;;2.11;nan
14343;BME280;7255;53.596;9.960;2023-03-01T05:30:29;102701.94;;;2.09;nan
14343;BME280;7255;53.596;9.960;2023-03-01T05:32:57;102710.72;;;2.21;nan
14343;BME280;7255;53.596;9.960;2023-03-01T05:35:24;102704.72;;;2.08;nan
14343;BME280;7255;53.596;9.960;2023-03-01T05:37:50;102711.44;;;2.12;nan
14343;BME280;7255;53.596;9.960;2023-03-01T05:40:18;102700.38;;;2.18;nan
14343;BME280;7255;53.596;9.960;2023-03-01T05:42:47;102698.31;;;2.10;nan
14343;BME280;7255;53.596;9.960;2023-03-01T05:45:15;102697.59;;;2.20;nan
14343;BME280;7255;53.596;9.960;2023-03-01T05:47:42;102705.91;;;2.38;nan
14343;BME280;7255;53.596;9.960;2023-03-01T05:50:13;102697.69;;;2.52;nan
14343;BME280;7255;53.596;9.960;2023-03-01T05:52:44;102692.97;;;2.56;nan
14343;BME280;7255;53.596;9.960;2023-03-01T05:55:11;102695.00;;;2.63;nan
14343;BME280;7255;53.596;9.960;2023-03-01T05:57:37;102692.22;;;2.65;nan
14343;BME280;7255;53.596;9.960;2023-03-01T06:00:04;102677.69;;;2.37;nan
14343;BME280;7255;53.596;9.960;2023-03-01T06:02:31;102681.66;;;2.20;nan
14343;BME280;7255;53.596;9.960;2023-03-01T06:04:57;102678.91;;;2.21;nan
14343;BME280;7255;53.596;9.960;2023-03-01T06:07:25;102672.16;;;2.17;nan
14343;BME280;7255;53.596;9.960;2023-03-01T06:09:51;102677.22;;;2.20;nan
14343;BME280;7255;53.596;9.960;2023-03-01T06:12:18;102678.19;;;2.08;nan
14343;BME280;7255;53.596;9.960;2023-03-01T06:14:45;102673.00;;;1.95;nan
14343;BME280;7255;53.596;9.960;2023-03-01T06:17:11;102661.06;;;2.01;nan
14343;BME280;7255;53.596;9.960;2023-03-01T06:19:37;102683.38;;;1.98;nan
14343;BME280;7255;53.596;9.960;2023-03-01T06:22:04;102672.75;;;1.76;nan
14343;BME280;7255;53.596;9.960;2023-03-01T06:24:32;102671.69;;;1.78;nan
14343;BME280;7255;53.596;9.960;2023-03-01T06:26:58;102676.88;;;1.91;nan
14343;BME280;7255;53.596;9.960;2023-03-01T06:29:24;102680.97;;;2.06;nan
14343;BME280;7255;53.596;9.960;2023-03-01T06:31:51;102674.81;;;2.06;nan
14343;BME280;7255;53.596;9.960;2023-03-01T06:34:20;102673.34;;;1.79;nan
14343;BME280;7255;53.596;9.960;2023-03-01T06:36:47;102670.00;;;2.00;nan
14343;BME280;7255;53.596;9.960;2023-03-01T06:39:13;102683.50;;;2.08;nan
14343;BME280;7255;53.596;9.960;2023-03-01T06:41:40;102675.66;;;2.06;nan
14343;BME280;7255;53.596;9.960;2023-03-01T06:44:07;102692.88;;;2.23;nan
14343;BME280;7255;53.596;9.960;2023-03-01T06:46:33;102688.53;;;2.34;nan
14343;BME280;7255;53.596;9.960;2023-03-01T06:48:59;102693.34;;;2.40;nan
14343;BME280;7255;53.596;9.960;2023-03-01T06:51:26;102703.59;;;2.56;nan
14343;BME280;7255;53.596;9.960;2023-03-01T06:53:52;102702.75;;;2.55;nan
14343;BME280;7255;53.596;9.960;2023-03-01T06:56:18;102711.87;;;2.74;nan
14343;BME280;7255;53.596;9.960;2023-03-01T06:58:46;102717.63;;;2.90;nan
14343;BME280;7255;53.596;9.960;2023-03-01T07:01:12;102714.34;;;2.98;nan
14343;BME280;7255;53.596;9.960;2023-03-01T07:03:38;102717.47;;;3.03;nan
14343;BME280;7255;53.596;9.960;2023-03-01T07:06:05;102720.16;;;2.92;nan
14343;BME280;7255;53.596;9.960;2023-03-01T07:08:31;102713.75;;;2.94;nan
14343;BME280;7255;53.596;9.960;2023-03-01T07:10:58;102723.03;;;3.00;nan
14343;BME280;7255;53.596;9.960;2023-03-01T07:13:27;102715.75;;;3.02;nan
14343;BME280;7255;53.596;9.960;2023-03-01T07:15:55;102715.34;;;3.18;nan
14343;BME280;7255;53.596;9.960;2023-03-01T07:18:21;102714.16;;;3.11;nan
14343;BME280;7255;53.596;9.960;2023-03-01T07:20:48;102709.69;;;3.11;nan
14343;BME280;7255;53.596;9.960;2023-03-01T07:23:14;102717.81;;;3.10;nan
14343;BME280;7255;53.596;9.960;2023-03-01T07:25:41;102716.53;;;3.25;nan
14343;BME280;7255;53.596;9.960;2023-03-01T07:28:07;102696.69;;;3.29;nan
14343;BME280;7255;53.596;9.960;2023-03-01T07:30:33;102701.94;;;3.19;nan
14343;BME280;7255;53.596;9.960;2023-03-01T07:33:01;102709.78;;;3.21;nan
14343;BME280;7255;53.596;9.960;2023-03-01T07:35:27;102712.06;;;3.25;nan
14343;BME280;7255;53.596;9.960;2023-03-01T07:37:54;102702.13;;;3.06;nan
14343;BME280;7255;53.596;9.960;2023-03-01T07:40:20;102699.09;;;2.79;nan
14343;BME280;7255;53.596;9.960;2023-03-01T07:42:46;102698.22;;;2.78;nan
14343;BME280;7255;53.596;9.960;2023-03-01T07:45:12;102688.94;;;2.73;nan
14343;BME280;7255;53.596;9.960;2023-03-01T07:47:39;102681.44;;;2.78;nan
14343;BME280;7255;53.596;9.960;2023-03-01T07:50:08;102680.25;;;2.70;nan
14343;BME280;7255;53.596;9.960;2023-03-01T07:52:35;102698.06;;;2.91;nan
14343;BME280;7255;53.596;9.960;2023-03-01T07:55:01;102698.81;;;2.82;nan
14343;BME280;7255;53.596;9.960;2023-03-01T07:57:27;102702.53;;;2.91;nan
14343;BME280;7255;53.596;9.960;2023-03-01T07:59:54;102689.06;;;2.82;nan
14343;BME280;7255;53.596;9.960;2023-03-01T08:02:20;102679.50;;;2.47;nan
14343;BME280;7255;53.596;9.960;2023-03-01T08:04:46;102675.47;;;2.64;nan
14343;BME280;7255;53.596;9.960;2023-03-01T08:07:14;102681.59;;;2.65;nan
14343;BME280;7255;53.596;9.960;2023-03-01T08:09:40;102672.56;;;2.56;nan
14343;BME280;7255;53.596;9.960;2023-03-01T08:12:07;102689.22;;;2.69;nan
14343;BME280;7255;53.596;9.960;2023-03-01T08:14:33;102688.75;;;2.53;nan
14343;BME280;7255;53.596;9.960;2023-03-01T08:16:59;102699.84;;;2.69;nan
14343;BME280;7255;53.596;9.960;2023-03-01T08:19:28;102706.47;;;2.64;nan
14343;BME280;7255;53.596;9.960;2023-03-01T08:21:54;102703.12;;;2.94;nan
14343;BME280;7255;53.596;9.960;2023-03-01T08:24:24;102711.56;;;2.99;nan
14343;BME280;7255;53.596;9.960;2023-03-01T08:26:50;102702.38;;;3.03;nan
14343;BME280;7255;53.596;9.960;2023-03-01T08:29:17;102711.97;;;3.16;nan
14343;BME280;7255;53.596;9.960;2023-03-01T08:31:43;102723.66;;;3.45;nan
14343;BME280;7255;53.596;9.960;2023-03-01T08:34:11;102716.56;;;3.67;nan
14343;BME280;7255;53.596;9.960;2023-03-01T08:36:39;102724.19;;;3.81;nan
14343;BME280;7255;53.596;9.960;2023-03-01T08:39:07;102717.50;;;3.87;nan
14343;BME280;7255;53.596;9.960;2023-03-01T08:41:35;102723.47;;;4.10;nan
14343;BME280;7255;53.596;9.960;2023-03-01T08:44:02;102719.88;;;4.21;nan
14343;BME280;7255;53.596;9.960;2023-03-01T08:46:31;102723.03;;;4.36;nan
14343;BME280;7255;53.596;9.960;2023-03-01T08:48:57;102704.03;;;4.50;nan
14343;BME280;7255;53.596;9.960;2023-03-01T08:51:24;102733.47;;;4.58;nan
14343;BME280;7255;53.596;9.960;2023-03-01T08:53:51;102740.78;;;4.56;nan
14343;BME280;7255;53.596;9.960;2023-03-01T08:56:18;102736.59;;;4.63;nan
14343;BME280;7255;53.596;9.960;2023-03-01T08:58:47;102739.41;;;4.72;nan
14343;BME280;7255;53.596;9.960;2023-03-01T09:01:16;102737.41;;;4.64;nan
14343;BME280;7255;53.596;9.960;2023-03-01T09:03:42;102739.41;;;4.72;nan
14343;BME280;7255;53.596;9.960;2023-03-01T09:06:09;102754.56;;;4.91;nan
14343;BME280;7255;53.596;9.960;2023-03-01T09:08:36;102754.03;;;5.07;nan
14343;BME280;7255;53.596;9.960;2023-03-01T09:11:03;102753.19;;;5.16;nan
14343;BME280;7255;53.596;9.960;2023-03-01T09:13:30;102746.16;;;5.05;nan
14343;BME280;7255;53.596;9.960;2023-03-01T09:15:58;102746.19;;;5.25;nan
14343;BME280;7255;53.596;9.960;2023-03-01T09:18:25;102740.84;;;5.05;nan
14343;BME280;7255;53.596;9.960;2023-03-01T09:20:51;102758.47;;;4.77;nan
14343;BME280;7255;53.596;9.960;2023-03-01T09:23:20;102756.50;;;4.69;nan
14343;BME280;7255;53.596;9.960;2023-03-01T09:25:46;102745.22;;;4.56;nan
14343;BME280;7255;53.596;9.960;2023-03-01T09:28:12;102746.13;;;4.76;nan
14343;BME280;7255;53.596;9.960;2023-03-01T09:30:38;102737.66;;;4.51;nan
14343;BME280;7255;53.596;9.960;2023-03-01T09:33:06;102759.63;;;4.94;nan
14343;BME280;7255;53.596;9.960;2023-03-01T09:35:32;102752.88;;;4.80;nan
14343;BME280;7255;53.596;9.960;2023-03-01T09:37:58;102757.41;;;4.99;nan
14343;BME280;7255;53.596;9.960;2023-03-01T09:40:28;102759.09;;;5.19;nan
14343;BME280;7255;53.596;9.960;2023-03-01T09:43:06;102762.97;;;4.76;nan
14343;BME280;7255;53.596;9.960;2023-03-01T09:45:41;102747.75;;;4.57;nan
14343;BME280;7255;53.596;9.960;2023-03-01T09:48:15;102743.25;;;4.48;nan
14343;BME280;7255;53.596;9.960;2023-03-01T09:50:44;102744.31;;;4.36;nan
14343;BME280;7255;53.596;9.960;2023-03-01T09:53:14;102749.16;;;4.52;nan
14343;BME280;7255;53.596;9.960;2023-03-01T09:55:44;102746.03;;;4.47;nan
14343;BME280;7255;53.596;9.960;2023-03-01T09:58:31;102746.69;;;4.70;nan
14343;BME280;7255;53.596;9.960;2023-03-01T10:01:06;102751.75;;;4.82;nan
14343;BME280;7255;53.596;9.960;2023-03-01T10:03:42;102752.63;;;5.03;nan
14343;BME280;7255;53.596;9.960;2023-03-01T10:06:14;102765.28;;;5.39;nan
14343;BME280;7255;53.596;9.960;2023-03-01T10:08:43;102747.25;;;4.83;nan
14343;BME280;7255;53.596;9.960;2023-03-01T10:11:20;102748.97;;;4.94;nan
14343;BME280;7255;53.596;9.960;2023-03-01T10:13:51;102738.87;;;5.07;nan
14343;BME280;7255;53.596;9.960;2023-03-01T10:16:24;102741.97;;;4.93;nan
14343;BME280;7255;53.596;9.960;2023-03-01T10:18:57;102743.81;;;4.52;nan
14343;BME280;7255;53.596;9.960;2023-03-01T10:21:26;102726.94;;;4.32;nan
14343;BME280;7255;53.596;9.960;2023-03-01T10:24:10;102731.44;;;4.31;nan
14343;BME280;7255;53.596;9.960;2023-03-01T10:26:44;102724.94;;;4.14;nan
14343;BME280;7255;53.596;9.960;2023-03-01T10:29:14;102717.91;;;4.13;nan
14343;BME280;7255;53.596;9.960;2023-03-01T10:31:43;102722.06;;;4.06;nan
14343;BME280;7255;53.596;9.960;2023-03-01T10:34:14;102709.22;;;4.11;nan
14343;BME280;7255;53.596;9.960;2023-03-01T10:36:41;102718.16;;;4.10;nan
14343;BME280;7255;53.596;9.960;2023-03-01T10:39:14;102710.91;;;4.12;nan
14343;BME280;7255;53.596;9.960;2023-03-01T10:41:54;102726.38;;;4.28;nan
14343;BME280;7255;53.596;9.960;2023-03-01T10:44:39;102721.09;;;4.38;nan
14343;BME280;7255;53.596;9.960;2023-03-01T10:47:17;102733.72;;;4.46;nan
14343;BME280;7255;53.596;9.960;2023-03-01T10:49:58;102716.88;;;4.45;nan
14343;BME280;7255;53.596;9.960;2023-03-01T10:52:27;102727.53;;;4.45;nan
14343;BME280;7255;53.596;9.960;2023-03-01T10:54:56;102729.25;;;4.46;nan
14343;BME280;7255;53.596;9.960;2023-03-01T10:57:32;102715.00;;;4.67;nan
14343;BME280;7255;53.596;9.960;2023-03-01T11:00:14;102721.75;;;4.80;nan
14343;BME280;7255;53.596;9.960;2023-03-01T11:02:42;102729.62;;;4.82;nan
14343;BME280;7255;53.596;9.960;2023-03-01T11:05:18;102713.03;;;4.69;nan
14343;BME280;7255;53.596;9.960;2023-03-01T11:07:49;102715.88;;;4.77;nan
14343;BME280;7255;53.596;9.960;2023-03-01T11:10:17;102713.34;;;4.85;nan
14343;BME280;7255;53.596;9.960;2023-03-01T11:12:44;102711.09;;;5.00;nan
14343;BME280;7255;53.596;9.960;2023-03-01T11:15:20;102712.22;;;5.07;nan
14343;BME280;7255;53.596;9.960;2023-03-01T11:17:47;102716.47;;;5.10;nan
14343;BME280;7255;53.596;9.960;2023-03-01T11:20:24;102704.97;;;5.19;nan
14343;BME280;7255;53.596;9.960;2023-03-01T11:22:53;102695.13;;;5.19;nan
14343;BME280;7255;53.596;9.960;2023-03-01T11:25:24;102709.16;;;5.31;nan
14343;BME280;7255;53.596;9.960;2023-03-01T11:27:51;102703.81;;;5.41;nan
14343;BME280;7255;53.596;9.960;2023-03-01T11:30:22;102715.31;;;5.42;nan
14343;BME280;7255;53.596;9.960;2023-03-01T11:32:55;102717.25;;;5.49;nan
14343;BME280;7255;53.596;9.960;2023-03-01T11:35:25;102715.84;;;5.65;nan
14343;BME280;7255;53.596;9.960;2023-03-01T11:38:00;102707.94;;;5.83;nan
14343;BME280;7255;53.596;9.960;2023-03-01T11:40:33;102711.28;;;5.94;nan
14343;BME280;7255;53.596;9.960;2023-03-01T11:43:11;102712.09;;;5.95;nan
14343;BME280;7255;53.596;9.960;2023-03-01T11:45:54;102709.56;;;5.93;nan
14343;BME280;7255;53.596;9.960;2023-03-01T11:48:43;102715.78;;;5.94;nan
14343;BME280;7255;53.596;9.960;2023-03-01T11:51:18;102712.06;;;6.14;nan
14343;BME280;7255;53.596;9.960;2023-03-01T11:53:59;102708.72;;;6.12;nan
14343;BME280;7255;53.596;9.960;2023-03-01T11:56:31;102705.59;;;6.17;nan
14343;BME280;7255;53.596;9.960;2023-03-01T11:59:20;102704.13;;;6.32;nan
14343;BME280;7255;53.596;9.960;2023-03-01T12:02:07;102666.47;;;6.53;nan
14343;BME280;7255;53.596;9.960;2023-03-01T12:04:57;102706.19;;;6.66;nan
14343;BME280;7255;53.596;9.960;2023-03-01T12:07:33;102707.63;;;6.61;nan
14343;BME280;7255;53.596;9.960;2023-03-01T12:10:26;102707.16;;;6.47;nan
14343;BME280;7255;53.596;9.960;2023-03-01T12:13:13;102696.09;;;6.60;nan
14343;BME280;7255;53.596;9.960;2023-03-01T12:15:59;102700.06;;;6.56;nan
14343;BME280;7255;53.596;9.960;2023-03-01T12:19:04;102698.56;;;6.71;nan
14343;BME280;7255;53.596;9.960;2023-03-01T12:21:43;102700.47;;;6.79;nan
14343;BME280;7255;53.596;9.960;2023-03-01T12:24:27;102699.09;;;6.75;nan
14343;BME280;7255;53.596;9.960;2023-03-01T12:27:10;102694.28;;;6.79;nan
14343;BME280;7255;53.596;9.960;2023-03-01T12:29:43;102681.06;;;6.77;nan
14343;BME280;7255;53.596;9.960;2023-03-01T12:32:24;102690.03;;;6.86;nan
14343;BME280;7255;53.596;9.960;2023-03-01T12:35:19;102673.00;;;6.69;nan
14343;BME280;7255;53.596;9.960;2023-03-01T12:37:54;102680.00;;;6.70;nan
14343;BME280;7255;53.596;9.960;2023-03-01T12:40:46;102678.88;;;6.72;nan
14343;BME280;7255;53.596;9.960;2023-03-01T12:43:25;102671.47;;;6.84;nan
14343;BME280;7255;53.596;9.960;2023-03-01T12:46:09;102672.69;;;7.08;nan
14343;BME280;7255;53.596;9.960;2023-03-01T12:48:48;102659.75;;;7.03;nan
14343;BME280;7255;53.596;9.960;2023-03-01T12:51:19;102660.69;;;6.94;nan
14343;BME280;7255;53.596;9.960;2023-03-01T12:53:49;102661.06;;;7.17;nan
14343;BME280;7255;53.596;9.960;2023-03-01T12:56:19;102661.50;;;7.30;nan
14343;BME280;7255;53.596;9.960;2023-03-01T12:58:56;102663.06;;;7.41;nan
14343;BME280;7255;53.596;9.960;2023-03-01T13:01:42;102654.47;;;7.29;nan
14343;BME280;7255;53.596;9.960;2023-03-01T13:04:17;102652.59;;;7.22;nan
14343;BME280;7255;53.596;9.960;2023-03-01T13:06:51;102649.31;;;7.10;nan
14343;BME280;7255;53.596;9.960;2023-03-01T13:09:24;102648.25;;;7.03;nan
14343;BME280;7255;53.596;9.960;2023-03-01T13:11:56;102637.53;;;7.03;nan
14343;BME280;7255;53.596;9.960;2023-03-01T13:14:45;102648.81;;;7.32;nan
14343;BME280;7255;53.596;9.960;2023-03-01T13:17:40;102640.44;;;7.27;nan
14343;BME280;7255;53.596;9.960;2023-03-01T13:20:13;102635.66;;;6.95;nan
14343;BME280;7255;53.596;9.960;2023-03-01T13:22:40;102632.97;;;7.13;nan
14343;BME280;7255;53.596;9.960;2023-03-01T13:25:17;102639.03;;;7.23;nan
14343;BME280;7255;53.596;9.960;2023-03-01T13:27:46;102635.50;;;7.15;nan
14343;BME280;7255;53.596;9.960;2023-03-01T13:30:39;102634.31;;;7.17;nan
14343;BME280;7255;53.596;9.960;2023-03-01T13:33:33;102640.91;;;7.05;nan
14343;BME280;7255;53.596;9.960;2023-03-01T13:36:01;102626.44;;;7.16;nan
14343;BME280;7255;53.596;9.960;2023-03-01T13:38:44;102622.81;;;7.17;nan
14343;BME280;7255;53.596;9.960;2023-03-01T13:41:13;102628.16;;;7.43;nan
14343;BME280;7255;53.596;9.960;2023-03-01T13:43:42;102625.03;;;7.47;nan
14343;BME280;7255;53.596;9.960;2023-03-01T13:46:12;102632.84;;;7.49;nan
14343;BME280;7255;53.596;9.960;2023-03-01T13:48:43;102618.06;;;7.10;nan